Roos, Michigan
Current Conditions -  °F | °C
As of 1:54 AM on Thursday 27 Nov 2014 (Local Time) from KOSC Reporting Station
Overcast Overcast  
Wind Chill: 20°   Ceiling: 5000
Heat Index: 27°   Visibility: 10mi
Dew Point: 22°   Wind: 7mph
Humidity: 80%   Direction: 290°WNW
Pressure: 30.07"   Gusts: NA
Location:  44.2265°N, 83.986°W
Report Text: KOSC 270654Z AUTO 29006KT 10SM OVC050 M02/M05 A3007 RMK AO2 T10261056
Loading
Personal Weather Stations






























Interactive Weather Map New forecast layout! Learn more

10-Day Weather Forecast

Advertisements
Track Severe Weather on mobile